sensor_id;sensor_type;location;lat;lon;timestamp;pressure;altitude;pressure_sealevel;temperature;humidity
29825;BME280;16713;52.916;12.834;2022-10-16T00:00:46;100446.25;;;12.65;92.82
29825;BME280;16713;52.916;12.834;2022-10-16T00:03:13;100444.34;;;12.69;93.54
29825;BME280;16713;52.916;12.834;2022-10-16T00:05:43;100439.25;;;12.71;92.99
29825;BME280;16713;52.916;12.834;2022-10-16T00:08:11;100445.44;;;12.64;92.48
29825;BME280;16713;52.916;12.834;2022-10-16T00:10:37;100453.38;;;12.66;92.85
29825;BME280;16713;52.916;12.834;2022-10-16T00:13:04;100454.94;;;12.67;93.01
29825;BME280;16713;52.916;12.834;2022-10-16T00:15:35;100453.84;;;12.75;93.48
29825;BME280;16713;52.916;12.834;2022-10-16T00:18:03;100453.09;;;12.78;93.94
29825;BME280;16713;52.916;12.834;2022-10-16T00:20:33;100458.13;;;12.72;94.16
29825;BME280;16713;52.916;12.834;2022-10-16T00:23:00;100453.00;;;12.71;93.12
29825;BME280;16713;52.916;12.834;2022-10-16T00:25:26;100466.88;;;12.78;92.62
29825;BME280;16713;52.916;12.834;2022-10-16T00:27:53;100477.44;;;12.76;93.56
29825;BME280;16713;52.916;12.834;2022-10-16T00:30:19;100473.22;;;12.82;94.06
29825;BME280;16713;52.916;12.834;2022-10-16T00:32:45;100472.38;;;12.78;92.71
29825;BME280;16713;52.916;12.834;2022-10-16T00:35:12;100467.25;;;12.76;94.65
29825;BME280;16713;52.916;12.834;2022-10-16T00:37:38;100469.41;;;12.93;93.07
29825;BME280;16713;52.916;12.834;2022-10-16T00:40:05;100464.59;;;12.87;93.32
29825;BME280;16713;52.916;12.834;2022-10-16T00:42:31;100472.56;;;12.95;92.92
29825;BME280;16713;52.916;12.834;2022-10-16T00:44:58;100469.41;;;12.93;93.75
29825;BME280;16713;52.916;12.834;2022-10-16T00:47:29;100472.75;;;13.13;93.51
29825;BME280;16713;52.916;12.834;2022-10-16T00:50:07;100482.25;;;13.15;92.60
29825;BME280;16713;52.916;12.834;2022-10-16T00:52:34;100484.59;;;13.13;92.45
29825;BME280;16713;52.916;12.834;2022-10-16T00:55:03;100490.47;;;13.12;93.56
29825;BME280;16713;52.916;12.834;2022-10-16T00:57:30;100496.84;;;13.19;93.39
29825;BME280;16713;52.916;12.834;2022-10-16T00:59:57;100486.63;;;13.20;93.38
29825;BME280;16713;52.916;12.834;2022-10-16T01:02:24;100483.91;;;13.23;92.95
29825;BME280;16713;52.916;12.834;2022-10-16T01:04:52;100490.94;;;13.21;92.91
29825;BME280;16713;52.916;12.834;2022-10-16T01:10:07;100485.94;;;13.30;91.94
29825;BME280;16713;52.916;12.834;2022-10-16T01:12:45;100491.03;;;13.28;91.83
29825;BME280;16713;52.916;12.834;2022-10-16T01:15:29;100494.22;;;13.33;91.50
29825;BME280;16713;52.916;12.834;2022-10-16T01:18:00;100505.56;;;13.28;92.35
29825;BME280;16713;52.916;12.834;2022-10-16T01:20:33;100506.88;;;13.38;92.81
29825;BME280;16713;52.916;12.834;2022-10-16T01:23:31;100518.31;;;13.40;92.43
29825;BME280;16713;52.916;12.834;2022-10-16T01:28:55;100529.13;;;13.22;92.40
29825;BME280;16713;52.916;12.834;2022-10-16T01:31:26;100536.09;;;13.13;93.19
29825;BME280;16713;52.916;12.834;2022-10-16T01:34:06;100535.69;;;13.11;92.94
29825;BME280;16713;52.916;12.834;2022-10-16T01:36:55;100526.97;;;13.05;93.04
29825;BME280;16713;52.916;12.834;2022-10-16T01:39:27;100527.78;;;13.09;92.21
29825;BME280;16713;52.916;12.834;2022-10-16T01:42:00;100527.78;;;13.09;92.38
29825;BME280;16713;52.916;12.834;2022-10-16T01:44:32;100524.66;;;13.07;92.64
29825;BME280;16713;52.916;12.834;2022-10-16T01:47:00;100517.16;;;13.08;93.20
29825;BME280;16713;52.916;12.834;2022-10-16T01:49:30;100519.84;;;13.01;91.87
29825;BME280;16713;52.916;12.834;2022-10-16T01:52:00;100510.94;;;13.14;92.68
29825;BME280;16713;52.916;12.834;2022-10-16T01:54:30;100525.34;;;13.01;93.28
29825;BME280;16713;52.916;12.834;2022-10-16T01:56:58;100519.16;;;13.11;92.66
29825;BME280;16713;52.916;12.834;2022-10-16T01:59:28;100545.66;;;13.22;92.75
29825;BME280;16713;52.916;12.834;2022-10-16T02:02:04;100538.06;;;13.12;92.51
29825;BME280;16713;52.916;12.834;2022-10-16T02:04:43;100539.75;;;13.24;91.94
29825;BME280;16713;52.916;12.834;2022-10-16T02:07:10;100534.00;;;13.03;91.45
29825;BME280;16713;52.916;12.834;2022-10-16T02:09:37;100545.88;;;13.07;91.65
29825;BME280;16713;52.916;12.834;2022-10-16T02:12:09;100550.25;;;13.11;92.37
29825;BME280;16713;52.916;12.834;2022-10-16T02:14:39;100551.75;;;13.05;92.10
29825;BME280;16713;52.916;12.834;2022-10-16T02:17:16;100561.16;;;13.01;92.50
29825;BME280;16713;52.916;12.834;2022-10-16T02:19:44;100566.28;;;13.02;92.29
29825;BME280;16713;52.916;12.834;2022-10-16T02:22:27;100573.69;;;12.98;92.16
29825;BME280;16713;52.916;12.834;2022-10-16T02:24:59;100572.66;;;13.10;91.79
29825;BME280;16713;52.916;12.834;2022-10-16T02:27:33;100560.09;;;13.12;90.63
29825;BME280;16713;52.916;12.834;2022-10-16T02:30:21;100566.22;;;12.99;91.53
29825;BME280;16713;52.916;12.834;2022-10-16T02:32:52;100577.47;;;13.16;91.34
29825;BME280;16713;52.916;12.834;2022-10-16T02:35:21;100571.34;;;13.30;91.24
29825;BME280;16713;52.916;12.834;2022-10-16T02:37:50;100570.16;;;13.31;91.10
29825;BME280;16713;52.916;12.834;2022-10-16T02:40:18;100576.09;;;13.33;90.11
29825;BME280;16713;52.916;12.834;2022-10-16T02:42:51;100571.19;;;13.19;90.36
29825;BME280;16713;52.916;12.834;2022-10-16T02:45:18;100584.53;;;13.17;89.56
29825;BME280;16713;52.916;12.834;2022-10-16T02:47:45;100593.66;;;13.21;89.26
29825;BME280;16713;52.916;12.834;2022-10-16T02:50:12;100595.66;;;13.24;89.60
29825;BME280;16713;52.916;12.834;2022-10-16T02:52:38;100599.16;;;13.21;88.15
29825;BME280;16713;52.916;12.834;2022-10-16T02:55:05;100601.91;;;13.21;87.81
29825;BME280;16713;52.916;12.834;2022-10-16T02:57:31;100599.31;;;13.35;89.03
29825;BME280;16713;52.916;12.834;2022-10-16T02:59:58;100605.25;;;13.37;88.57
29825;BME280;16713;52.916;12.834;2022-10-16T03:02:24;100617.00;;;13.31;87.71
29825;BME280;16713;52.916;12.834;2022-10-16T03:04:51;100607.44;;;13.21;87.91
29825;BME280;16713;52.916;12.834;2022-10-16T03:07:17;100609.59;;;13.38;87.97
29825;BME280;16713;52.916;12.834;2022-10-16T03:09:43;100602.94;;;13.40;86.40
29825;BME280;16713;52.916;12.834;2022-10-16T03:12:10;100607.31;;;13.44;86.09
29825;BME280;16713;52.916;12.834;2022-10-16T03:14:38;100603.75;;;13.44;85.83
29825;BME280;16713;52.916;12.834;2022-10-16T03:17:05;100595.88;;;13.42;86.58
29825;BME280;16713;52.916;12.834;2022-10-16T03:19:32;100605.97;;;13.31;85.46
29825;BME280;16713;52.916;12.834;2022-10-16T03:21:58;100603.59;;;13.29;84.57
29825;BME280;16713;52.916;12.834;2022-10-16T03:24:25;100597.38;;;13.06;84.84
29825;BME280;16713;52.916;12.834;2022-10-16T03:26:51;100609.41;;;12.91;85.12
29825;BME280;16713;52.916;12.834;2022-10-16T03:29:17;100619.50;;;12.84;85.54
29825;BME280;16713;52.916;12.834;2022-10-16T03:31:44;100617.44;;;12.77;86.76
29825;BME280;16713;52.916;12.834;2022-10-16T03:34:10;100616.22;;;12.75;85.88
29825;BME280;16713;52.916;12.834;2022-10-16T03:36:36;100599.59;;;12.68;85.73
29825;BME280;16713;52.916;12.834;2022-10-16T03:39:03;100610.53;;;12.64;86.53
29825;BME280;16713;52.916;12.834;2022-10-16T03:41:29;100618.03;;;12.41;86.32
29825;BME280;16713;52.916;12.834;2022-10-16T03:43:56;100629.09;;;12.45;86.73
29825;BME280;16713;52.916;12.834;2022-10-16T03:46:22;100622.81;;;12.44;87.03
29825;BME280;16713;52.916;12.834;2022-10-16T03:48:48;100622.59;;;12.56;86.78
29825;BME280;16713;52.916;12.834;2022-10-16T03:51:15;100631.88;;;12.48;86.48
29825;BME280;16713;52.916;12.834;2022-10-16T03:53:41;100626.59;;;12.36;87.32
29825;BME280;16713;52.916;12.834;2022-10-16T03:56:08;100624.59;;;12.11;87.81
29825;BME280;16713;52.916;12.834;2022-10-16T03:58:34;100640.91;;;12.00;88.27
29825;BME280;16713;52.916;12.834;2022-10-16T04:01:00;100644.53;;;12.04;88.39
29825;BME280;16713;52.916;12.834;2022-10-16T04:03:27;100641.16;;;11.91;87.89
29825;BME280;16713;52.916;12.834;2022-10-16T04:08:20;100634.03;;;11.90;88.50
29825;BME280;16713;52.916;12.834;2022-10-16T04:10:47;100634.38;;;11.66;88.68
29825;BME280;16713;52.916;12.834;2022-10-16T04:13:13;100643.66;;;11.58;89.21
29825;BME280;16713;52.916;12.834;2022-10-16T04:15:40;100645.59;;;11.58;89.64
29825;BME280;16713;52.916;12.834;2022-10-16T04:18:06;100644.63;;;11.50;90.12
29825;BME280;16713;52.916;12.834;2022-10-16T04:20:33;100643.25;;;11.41;89.97
29825;BME280;16713;52.916;12.834;2022-10-16T04:23:00;100641.31;;;11.41;90.30
29825;BME280;16713;52.916;12.834;2022-10-16T04:25:26;100646.16;;;11.48;90.24
29825;BME280;16713;52.916;12.834;2022-10-16T04:27:53;100644.34;;;11.36;90.25
29825;BME280;16713;52.916;12.834;2022-10-16T04:30:21;100646.44;;;11.43;90.73
29825;BME280;16713;52.916;12.834;2022-10-16T04:32:51;100645.59;;;11.39;89.64
29825;BME280;16713;52.916;12.834;2022-10-16T04:35:19;100647.47;;;11.35;90.29
29825;BME280;16713;52.916;12.834;2022-10-16T04:37:46;100644.88;;;11.42;90.95
29825;BME280;16713;52.916;12.834;2022-10-16T04:40:13;100649.34;;;11.50;90.65
29825;BME280;16713;52.916;12.834;2022-10-16T04:42:39;100640.25;;;11.65;89.97
29825;BME280;16713;52.916;12.834;2022-10-16T04:45:07;100639.81;;;11.82;89.66
29825;BME280;16713;52.916;12.834;2022-10-16T04:47:40;100642.44;;;11.97;89.62
29825;BME280;16713;52.916;12.834;2022-10-16T04:50:07;100630.41;;;12.06;88.61
29825;BME280;16713;52.916;12.834;2022-10-16T04:52:33;100631.38;;;12.17;88.00
29825;BME280;16713;52.916;12.834;2022-10-16T04:55:05;100631.00;;;12.18;87.73
29825;BME280;16713;52.916;12.834;2022-10-16T04:57:31;100635.91;;;12.28;88.05
29825;BME280;16713;52.916;12.834;2022-10-16T04:59:59;100639.44;;;12.29;87.66
29825;BME280;16713;52.916;12.834;2022-10-16T05:02:25;100642.44;;;12.43;87.23
29825;BME280;16713;52.916;12.834;2022-10-16T05:04:52;100640.78;;;12.38;85.84
29825;BME280;16713;52.916;12.834;2022-10-16T05:07:18;100634.66;;;12.48;85.38
29825;BME280;16713;52.916;12.834;2022-10-16T05:09:45;100645.78;;;12.55;85.64
29825;BME280;16713;52.916;12.834;2022-10-16T05:12:11;100648.09;;;12.53;85.38
29825;BME280;16713;52.916;12.834;2022-10-16T05:14:37;100650.75;;;12.46;84.91
29825;BME280;16713;52.916;12.834;2022-10-16T05:17:04;100652.75;;;12.49;85.07
29825;BME280;16713;52.916;12.834;2022-10-16T05:19:30;100661.84;;;12.53;84.45
29825;BME280;16713;52.916;12.834;2022-10-16T05:21:57;100667.44;;;12.34;84.36
29825;BME280;16713;52.916;12.834;2022-10-16T05:24:23;100676.25;;;12.21;86.41
29825;BME280;16713;52.916;12.834;2022-10-16T05:26:50;100675.59;;;12.08;86.06
29825;BME280;16713;52.916;12.834;2022-10-16T05:29:16;100689.81;;;11.91;87.71
29825;BME280;16713;52.916;12.834;2022-10-16T05:31:43;100690.78;;;11.79;88.33
29825;BME280;16713;52.916;12.834;2022-10-16T05:34:09;100677.41;;;11.78;88.75
29825;BME280;16713;52.916;12.834;2022-10-16T05:36:36;100677.75;;;11.76;88.69
29825;BME280;16713;52.916;12.834;2022-10-16T05:39:02;100674.75;;;11.62;90.12
29825;BME280;16713;52.916;12.834;2022-10-16T05:41:29;100672.19;;;11.73;89.81
29825;BME280;16713;52.916;12.834;2022-10-16T05:43:55;100674.94;;;11.73;90.47
29825;BME280;16713;52.916;12.834;2022-10-16T05:46:21;100670.63;;;11.72;90.99
29825;BME280;16713;52.916;12.834;2022-10-16T05:48:48;100675.31;;;11.71;90.50
29825;BME280;16713;52.916;12.834;2022-10-16T05:51:14;100677.19;;;11.86;91.35
29825;BME280;16713;52.916;12.834;2022-10-16T05:53:41;100690.41;;;11.81;91.11
29825;BME280;16713;52.916;12.834;2022-10-16T05:56:13;100691.66;;;11.83;91.85
29825;BME280;16713;52.916;12.834;2022-10-16T05:58:39;100682.97;;;11.81;92.49
29825;BME280;16713;52.916;12.834;2022-10-16T06:01:12;100692.56;;;11.91;92.35
29825;BME280;16713;52.916;12.834;2022-10-16T06:03:39;100698.72;;;11.84;92.27
29825;BME280;16713;52.916;12.834;2022-10-16T06:06:11;100709.13;;;11.94;92.87
29825;BME280;16713;52.916;12.834;2022-10-16T06:08:39;100704.56;;;12.02;92.95
29825;BME280;16713;52.916;12.834;2022-10-16T06:11:09;100700.72;;;12.07;92.97
29825;BME280;16713;52.916;12.834;2022-10-16T06:13:36;100713.50;;;12.18;92.40
29825;BME280;16713;52.916;12.834;2022-10-16T06:16:03;100717.53;;;12.24;91.59
29825;BME280;16713;52.916;12.834;2022-10-16T06:18:30;100726.88;;;12.20;91.98
29825;BME280;16713;52.916;12.834;2022-10-16T06:20:57;100735.06;;;12.16;92.26
29825;BME280;16713;52.916;12.834;2022-10-16T06:23:25;100751.63;;;12.20;91.94
29825;BME280;16713;52.916;12.834;2022-10-16T06:25:51;100760.94;;;12.34;92.99
29825;BME280;16713;52.916;12.834;2022-10-16T06:28:18;100762.13;;;12.33;92.41
29825;BME280;16713;52.916;12.834;2022-10-16T06:30:44;100757.91;;;12.39;92.27
29825;BME280;16713;52.916;12.834;2022-10-16T06:33:11;100763.84;;;12.41;92.18
29825;BME280;16713;52.916;12.834;2022-10-16T06:35:38;100758.34;;;12.41;92.15
29825;BME280;16713;52.916;12.834;2022-10-16T06:38:04;100761.19;;;12.48;91.28
29825;BME280;16713;52.916;12.834;2022-10-16T06:40:31;100758.69;;;12.40;92.53
29825;BME280;16713;52.916;12.834;2022-10-16T06:42:57;100750.56;;;12.47;93.17
29825;BME280;16713;52.916;12.834;2022-10-16T06:45:23;100760.88;;;12.53;93.13
29825;BME280;16713;52.916;12.834;2022-10-16T06:47:50;100767.38;;;12.64;93.33
29825;BME280;16713;52.916;12.834;2022-10-16T06:50:16;100766.25;;;12.65;92.72
29825;BME280;16713;52.916;12.834;2022-10-16T06:52:42;100773.53;;;12.77;91.84
29825;BME280;16713;52.916;12.834;2022-10-16T06:55:09;100772.00;;;12.79;92.95
29825;BME280;16713;52.916;12.834;2022-10-16T06:57:35;100773.28;;;12.85;92.87
29825;BME280;16713;52.916;12.834;2022-10-16T07:00:03;100787.53;;;12.91;92.76
29825;BME280;16713;52.916;12.834;2022-10-16T07:02:29;100784.91;;;12.98;91.19
29825;BME280;16713;52.916;12.834;2022-10-16T07:04:55;100791.25;;;13.02;91.70
29825;BME280;16713;52.916;12.834;2022-10-16T07:07:23;100783.06;;;13.05;90.46
29825;BME280;16713;52.916;12.834;2022-10-16T07:09:50;100791.38;;;13.09;90.85
29825;BME280;16713;52.916;12.834;2022-10-16T07:12:17;100803.91;;;13.06;91.22
29825;BME280;16713;52.916;12.834;2022-10-16T07:14:43;100796.50;;;13.10;91.50
29825;BME280;16713;52.916;12.834;2022-10-16T07:17:10;100798.16;;;13.15;91.55
29825;BME280;16713;52.916;12.834;2022-10-16T07:19:36;100795.28;;;13.08;91.99
29825;BME280;16713;52.916;12.834;2022-10-16T07:22:03;100808.31;;;13.11;92.22
29825;BME280;16713;52.916;12.834;2022-10-16T07:24:29;100817.00;;;13.13;91.62
29825;BME280;16713;52.916;12.834;2022-10-16T07:26:55;100807.16;;;13.12;91.86
29825;BME280;16713;52.916;12.834;2022-10-16T07:29:22;100823.78;;;13.19;92.17
29825;BME280;16713;52.916;12.834;2022-10-16T07:31:49;100823.78;;;13.19;91.68
29825;BME280;16713;52.916;12.834;2022-10-16T07:34:17;100816.56;;;13.11;91.35
29825;BME280;16713;52.916;12.834;2022-10-16T07:36:44;100813.44;;;13.12;92.59
29825;BME280;16713;52.916;12.834;2022-10-16T07:39:10;100816.91;;;13.06;92.69
29825;BME280;16713;52.916;12.834;2022-10-16T07:41:36;100816.56;;;13.11;91.30
29825;BME280;16713;52.916;12.834;2022-10-16T07:44:03;100792.88;;;12.20;86.74
29825;BME280;16713;52.916;12.834;2022-10-16T07:46:30;100797.50;;;12.76;91.89
29825;BME280;16713;52.916;12.834;2022-10-16T07:48:57;100812.75;;;12.93;91.54
29825;BME280;16713;52.916;12.834;2022-10-16T07:51:24;100819.31;;;13.11;91.64
29825;BME280;16713;52.916;12.834;2022-10-16T07:53:52;100819.75;;;13.13;92.67
29825;BME280;16713;52.916;12.834;2022-10-16T07:56:20;100812.75;;;13.19;91.70
29825;BME280;16713;52.916;12.834;2022-10-16T07:58:47;100820.25;;;13.18;92.36
29825;BME280;16713;52.916;12.834;2022-10-16T08:01:16;100813.44;;;13.12;92.05
29825;BME280;16713;52.916;12.834;2022-10-16T08:03:45;100823.31;;;13.13;91.37
29825;BME280;16713;52.916;12.834;2022-10-16T08:06:11;100823.38;;;13.17;91.80
29825;BME280;16713;52.916;12.834;2022-10-16T08:08:38;100827.34;;;13.19;92.33
29825;BME280;16713;52.916;12.834;2022-10-16T08:11:04;100829.78;;;13.24;91.20
29825;BME280;16713;52.916;12.834;2022-10-16T08:13:31;100820.78;;;13.27;91.20
29825;BME280;16713;52.916;12.834;2022-10-16T08:15:57;100824.47;;;13.38;90.87
29825;BME280;16713;52.916;12.834;2022-10-16T08:18:24;100822.91;;;13.37;91.24
29825;BME280;16713;52.916;12.834;2022-10-16T08:20:59;100830.44;;;13.41;90.56
29825;BME280;16713;52.916;12.834;2022-10-16T08:23:27;100827.34;;;13.46;91.45
29825;BME280;16713;52.916;12.834;2022-10-16T08:25:55;100837.19;;;13.47;91.42
29825;BME280;16713;52.916;12.834;2022-10-16T08:28:22;100832.69;;;13.61;92.13
29825;BME280;16713;52.916;12.834;2022-10-16T08:30:49;100849.31;;;13.65;90.99
29825;BME280;16713;52.916;12.834;2022-10-16T08:33:16;100854.50;;;13.70;90.53
29825;BME280;16713;52.916;12.834;2022-10-16T08:35:42;100860.91;;;13.77;91.67
29825;BME280;16713;52.916;12.834;2022-10-16T08:38:08;100861.09;;;13.88;90.36
29825;BME280;16713;52.916;12.834;2022-10-16T08:40:36;100870.66;;;13.97;90.34
29825;BME280;16713;52.916;12.834;2022-10-16T08:48:23;100863.41;;;14.15;89.67
29825;BME280;16713;52.916;12.834;2022-10-16T08:50:53;100866.16;;;14.15;89.12
29825;BME280;16713;52.916;12.834;2022-10-16T08:53:31;100868.63;;;14.24;89.32
29825;BME280;16713;52.916;12.834;2022-10-16T08:56:01;100871.88;;;14.29;89.96
29825;BME280;16713;52.916;12.834;2022-10-16T08:58:30;100869.06;;;14.26;90.23
29825;BME280;16713;52.916;12.834;2022-10-16T09:00:59;100874.66;;;14.33;89.12
29825;BME280;16713;52.916;12.834;2022-10-16T09:12:00;100874.00;;;14.43;89.98
29825;BME280;16713;52.916;12.834;2022-10-16T09:14:38;100876.84;;;14.50;89.59
29825;BME280;16713;52.916;12.834;2022-10-16T09:17:25;100881.22;;;14.54;89.41
29825;BME280;16713;52.916;12.834;2022-10-16T09:20:24;100887.25;;;14.60;89.52
29825;BME280;16713;52.916;12.834;2022-10-16T09:25:31;100884.41;;;14.56;87.62
29825;BME280;16713;52.916;12.834;2022-10-16T09:27:58;100880.56;;;14.61;87.22
29825;BME280;16713;52.916;12.834;2022-10-16T09:30:28;100877.13;;;14.71;86.43
29825;BME280;16713;52.916;12.834;2022-10-16T09:32:57;100879.84;;;14.67;85.48
29825;BME280;16713;52.916;12.834;2022-10-16T09:35:32;100883.50;;;14.79;85.14
29825;BME280;16713;52.916;12.834;2022-10-16T09:38:01;100889.41;;;14.77;84.39
29825;BME280;16713;52.916;12.834;2022-10-16T09:40:33;100885.50;;;14.82;85.05
29825;BME280;16713;52.916;12.834;2022-10-16T09:45:58;100890.59;;;14.76;82.72
29825;BME280;16713;52.916;12.834;2022-10-16T09:48:30;100886.59;;;14.73;83.65
29825;BME280;16713;52.916;12.834;2022-10-16T09:51:01;100886.59;;;14.73;83.28
29825;BME280;16713;52.916;12.834;2022-10-16T09:53:59;100888.53;;;14.69;82.77
29825;BME280;16713;52.916;12.834;2022-10-16T09:56:28;100897.06;;;14.91;81.50
29825;BME280;16713;52.916;12.834;2022-10-16T09:58:57;100901.78;;;14.90;80.83
29825;BME280;16713;52.916;12.834;2022-10-16T10:01:36;100898.50;;;14.81;81.82
29825;BME280;16713;52.916;12.834;2022-10-16T10:04:04;100902.59;;;14.91;81.35
29825;BME280;16713;52.916;12.834;2022-10-16T10:06:34;100906.00;;;14.81;80.65
29825;BME280;16713;52.916;12.834;2022-10-16T10:09:19;100908.88;;;14.91;81.18
29825;BME280;16713;52.916;12.834;2022-10-16T10:11:51;100907.28;;;14.90;81.05
29825;BME280;16713;52.916;12.834;2022-10-16T10:14:26;100906.78;;;14.81;81.36
29825;BME280;16713;52.916;12.834;2022-10-16T10:19:53;100917.94;;;14.88;81.93
29825;BME280;16713;52.916;12.834;2022-10-16T10:22:43;100925.38;;;14.84;82.19
29825;BME280;16713;52.916;12.834;2022-10-16T10:30:20;100945.44;;;15.14;81.01
29825;BME280;16713;52.916;12.834;2022-10-16T10:35:40;100953.59;;;15.40;78.26
29825;BME280;16713;52.916;12.834;2022-10-16T10:44:14;100960.06;;;15.55;77.22
29825;BME280;16713;52.916;12.834;2022-10-16T10:46:54;100966.78;;;15.57;77.41
29825;BME280;16713;52.916;12.834;2022-10-16T10:49:47;100971.13;;;15.58;77.89
29825;BME280;16713;52.916;12.834;2022-10-16T10:57:41;100969.25;;;15.66;77.66
29825;BME280;16713;52.916;12.834;2022-10-16T11:03:04;100964.94;;;15.72;76.80
29825;BME280;16713;52.916;12.834;2022-10-16T11:05:49;100975.16;;;15.64;77.80
29825;BME280;16713;52.916;12.834;2022-10-16T11:08:28;100980.22;;;15.59;78.00
29825;BME280;16713;52.916;12.834;2022-10-16T11:11:00;100985.41;;;15.64;78.49
29825;BME280;16713;52.916;12.834;2022-10-16T11:13:33;100980.72;;;15.71;77.54
29825;BME280;16713;52.916;12.834;2022-10-16T11:16:10;100978.03;;;15.78;77.49
29825;BME280;16713;52.916;12.834;2022-10-16T11:19:11;100973.75;;;15.88;76.87
29825;BME280;16713;52.916;12.834;2022-10-16T11:22:01;100974.16;;;15.86;76.66
29825;BME280;16713;52.916;12.834;2022-10-16T11:25:00;100975.38;;;15.92;76.32
29825;BME280;16713;52.916;12.834;2022-10-16T11:27:42;100966.25;;;15.88;75.85
29825;BME280;16713;52.916;12.834;2022-10-16T11:30:19;100972.25;;;15.97;75.32
29825;BME280;16713;52.916;12.834;2022-10-16T11:35:39;100982.53;;;16.00;74.03
29825;BME280;16713;52.916;12.834;2022-10-16T11:38:14;100979.72;;;15.93;74.06
29825;BME280;16713;52.916;12.834;2022-10-16T11:40:43;100988.03;;;15.97;74.34
29825;BME280;16713;52.916;12.834;2022-10-16T11:43:19;100990.91;;;16.07;72.72
29825;BME280;16713;52.916;12.834;2022-10-16T11:45:59;100999.22;;;16.11;71.72
29825;BME280;16713;52.916;12.834;2022-10-16T11:56:59;101021.28;;;16.00;72.47
29825;BME280;16713;52.916;12.834;2022-10-16T11:59:40;101018.53;;;16.04;72.54
29825;BME280;16713;52.916;12.834;2022-10-16T12:02:30;101017.31;;;16.01;72.31
29825;BME280;16713;52.916;12.834;2022-10-16T12:05:23;101025.63;;;16.01;72.66
29825;BME280;16713;52.916;12.834;2022-10-16T12:07:54;101020.06;;;15.94;73.44
29825;BME280;16713;52.916;12.834;2022-10-16T12:10:29;101030.28;;;15.90;72.72
29825;BME280;16713;52.916;12.834;2022-10-16T12:12:58;101029.69;;;16.11;72.69
29825;BME280;16713;52.916;12.834;2022-10-16T12:15:27;101026.13;;;16.14;71.86
29825;BME280;16713;52.916;12.834;2022-10-16T12:18:24;101031.63;;;16.10;71.83
29825;BME280;16713;52.916;12.834;2022-10-16T12:20:58;101037.28;;;16.25;70.68
29825;BME280;16713;52.916;12.834;2022-10-16T12:23:33;101031.72;;;16.25;70.52
29825;BME280;16713;52.916;12.834;2022-10-16T12:26:03;101040.16;;;16.35;69.69
29825;BME280;16713;52.916;12.834;2022-10-16T12:28:31;101040.09;;;16.32;70.34
29825;BME280;16713;52.916;12.834;2022-10-16T12:31:01;101048.09;;;16.44;69.21
29825;BME280;16713;52.916;12.834;2022-10-16T12:33:59;101054.09;;;16.49;69.40
29825;BME280;16713;52.916;12.834;2022-10-16T12:36:32;101052.50;;;16.52;68.29
29825;BME280;16713;52.916;12.834;2022-10-16T12:39:01;101062.41;;;16.56;66.38
29825;BME280;16713;52.916;12.834;2022-10-16T12:41:35;101072.34;;;16.64;66.25
29825;BME280;16713;52.916;12.834;2022-10-16T12:44:04;101077.16;;;16.67;65.33
29825;BME280;16713;52.916;12.834;2022-10-16T12:51:38;101080.28;;;16.62;65.73
29825;BME280;16713;52.916;12.834;2022-10-16T12:54:17;101085.47;;;16.67;65.69
29825;BME280;16713;52.916;12.834;2022-10-16T12:59:57;101087.81;;;16.65;65.15
29825;BME280;16713;52.916;12.834;2022-10-16T13:10:41;101108.38;;;16.68;64.39
29825;BME280;16713;52.916;12.834;2022-10-16T13:13:39;101109.88;;;16.51;65.08
29825;BME280;16713;52.916;12.834;2022-10-16T13:21:36;101132.03;;;16.55;63.49
29825;BME280;16713;52.916;12.834;2022-10-16T13:27:43;101134.09;;;16.65;64.01
29825;BME280;16713;52.916;12.834;2022-10-16T13:30:18;101142.72;;;16.56;65.02
29825;BME280;16713;52.916;12.834;2022-10-16T13:32:50;101138.84;;;16.61;64.65
29825;BME280;16713;52.916;12.834;2022-10-16T13:35:21;101147.50;;;16.56;64.61
29825;BME280;16713;52.916;12.834;2022-10-16T13:37:48;101139.16;;;16.52;64.81
29825;BME280;16713;52.916;12.834;2022-10-16T13:40:22;101148.69;;;16.58;64.52
29825;BME280;16713;52.916;12.834;2022-10-16T13:42:50;101147.13;;;16.61;64.02
29825;BME280;16713;52.916;12.834;2022-10-16T13:45:25;101141.19;;;16.59;64.56
29825;BME280;16713;52.916;12.834;2022-10-16T13:48:02;101145.13;;;16.54;64.91
29825;BME280;16713;52.916;12.834;2022-10-16T13:50:29;101145.84;;;16.48;65.05
29825;BME280;16713;52.916;12.834;2022-10-16T13:53:05;101151.34;;;16.44;65.48
29825;BME280;16713;52.916;12.834;2022-10-16T13:55:32;101144.63;;;16.45;64.92
29825;BME280;16713;52.916;12.834;2022-10-16T13:58:12;101148.19;;;16.46;64.75
29825;BME280;16713;52.916;12.834;2022-10-16T14:00:39;101152.00;;;16.31;65.33
29825;BME280;16713;52.916;12.834;2022-10-16T14:03:13;101153.66;;;16.39;65.12
29825;BME280;16713;52.916;12.834;2022-10-16T14:05:49;101156.38;;;16.32;64.92
29825;BME280;16713;52.916;12.834;2022-10-16T14:08:16;101156.13;;;16.47;63.44
29825;BME280;16713;52.916;12.834;2022-10-16T14:10:47;101166.78;;;16.45;63.78
29825;BME280;16713;52.916;12.834;2022-10-16T14:13:16;101169.50;;;16.42;63.73
29825;BME280;16713;52.916;12.834;2022-10-16T14:15:46;101177.88;;;16.49;63.93
29825;BME280;16713;52.916;12.834;2022-10-16T14:18:19;101175.47;;;16.44;63.82
29825;BME280;16713;52.916;12.834;2022-10-16T14:20:48;101181.44;;;16.46;63.78
29825;BME280;16713;52.916;12.834;2022-10-16T14:23:19;101189.41;;;16.54;63.08
29825;BME280;16713;52.916;12.834;2022-10-16T14:25:46;101186.19;;;16.49;63.57